Claire — PCUG — position and weather

sailwx.info

Track history (hours):
 
Tides and Currents Weather Stations Pressure Air Temp Water Temp Dewpoint Dewpoint Depression Visibility Wind Speed Wind Dir Waves Ship Positions

Claire

Last reported at 2018-Feb-21 23:38 UTC. Time now 2018-Feb-23 20:28 UTC.
Position N 40°04' W 009°50'.

Length 90 m; draft 6.5 m.

Type: Cargo ship. MMSI: 244790234.

Date/timePositionNaut miles runAvg speedWind from/ knotsBaromVisibWave heightAir tempDewpointWater temp
2018-Feb-21 23:38N 40°04' W 009°50'1 7.5
2018-Feb-21 23:29N 40°03' W 009°50'18 7.2
2018-Feb-21 21:02N 39°46' W 009°50'0 7.3
2018-Feb-21 21:00N 39°45' W 009°50'4 7.2
2018-Feb-21 20:28N 39°41' W 009°50'33 7.3
2018-Feb-21 16:03N 39°09' W 009°51'0 7.3
2018-Feb-21 16:00N 39°09' W 009°51'4 7.6
2018-Feb-21 15:30N 39°05' W 009°51'4 7.7
2018-Feb-21 15:00N 39°01' W 009°51'4 7.8
2018-Feb-21 14:30N 38°57' W 009°52'4 7.6
2018-Feb-21 14:00N 38°53' W 009°52'4 7.4
2018-Feb-21 13:30N 38°50' W 009°52'4 7.4
2018-Feb-21 13:00N 38°46' W 009°52'4 7.2
2018-Feb-21 12:30N 38°42' W 009°51'4 7.3
2018-Feb-21 12:00N 38°39' W 009°50'4 7.4
2018-Feb-21 11:30N 38°35' W 009°49'4 7.4
2018-Feb-21 11:00N 38°32' W 009°48'4 7.5
2018-Feb-21 10:30N 38°28' W 009°47'4 7.5
2018-Feb-21 10:00N 38°24' W 009°45'4 7.5
2018-Feb-21 09:30N 38°21' W 009°44'4 7.5
2018-Feb-21 09:00N 38°17' W 009°43'8 7.5
2018-Feb-21 07:56N 38°09' W 009°41'19 7.5
2018-Feb-21 05:26N 37°51' W 009°36'3 6.9
2018-Feb-21 05:00N 37°48' W 009°35'3 6.9
2018-Feb-21 04:30N 37°45' W 009°35'3 6.9
2018-Feb-21 04:00N 37°41' W 009°34'3 7.0
2018-Feb-21 03:30N 37°38' W 009°32'4 7.0
2018-Feb-21 02:57N 37°34' W 009°31'3 6.8
2018-Feb-21 02:30N 37°31' W 009°30'3 6.8
2018-Feb-21 02:00N 37°28' W 009°29'22 6.7
2018-Feb-20 22:42N 37°07' W 009°23'2 6.4
2018-Feb-20 22:19N 37°04' W 009°22'26 5.9
2018-Feb-20 17:48N 36°43' W 009°02'9 6.2
2018-Feb-20 16:16N 36°40' W 008°51'163 8.0
2018-Feb-19 19:54N 35°58' W 005°36'4 6.2
2018-Feb-19 19:13N 35°59' W 005°31'2 7.5
2018-Feb-19 19:00N 35°59' W 005°29'4 7.3
2018-Feb-19 18:30N 36°00' W 005°25'4 7.0
2018-Feb-19 18:00N 36°01' W 005°20'  
Track history (hours):
 
Tides and Currents Weather Stations Pressure Air Temp Water Temp Dewpoint Dewpoint Depression Visibility Wind Speed Wind Dir Waves Ship Positions

Claire

Last reported at 2018-Feb-21 23:38 UTC. Time now 2018-Feb-23 20:28 UTC.
Position N 40°04' W 009°50'.

Length 90 m; draft 6.5 m.

Type: Cargo ship. MMSI: 244790234.

Date/timePositionNaut miles runAvg speedWind from/ knotsBaromVisibWave heightAir tempDewpointWater temp
2018-Feb-21 23:38N 40°04' W 009°50'1 7.5
2018-Feb-21 23:29N 40°03' W 009°50'18 7.2
2018-Feb-21 21:02N 39°46' W 009°50'0 7.3
2018-Feb-21 21:00N 39°45' W 009°50'4 7.2
2018-Feb-21 20:28N 39°41' W 009°50'33 7.3
2018-Feb-21 16:03N 39°09' W 009°51'0 7.3
2018-Feb-21 16:00N 39°09' W 009°51'4 7.6
2018-Feb-21 15:30N 39°05' W 009°51'4 7.7
2018-Feb-21 15:00N 39°01' W 009°51'4 7.8
2018-Feb-21 14:30N 38°57' W 009°52'4 7.6
2018-Feb-21 14:00N 38°53' W 009°52'4 7.4
2018-Feb-21 13:30N 38°50' W 009°52'4 7.4
2018-Feb-21 13:00N 38°46' W 009°52'4 7.2
2018-Feb-21 12:30N 38°42' W 009°51'4 7.3
2018-Feb-21 12:00N 38°39' W 009°50'4 7.4
2018-Feb-21 11:30N 38°35' W 009°49'4 7.4
2018-Feb-21 11:00N 38°32' W 009°48'4 7.5
2018-Feb-21 10:30N 38°28' W 009°47'4 7.5
2018-Feb-21 10:00N 38°24' W 009°45'4 7.5
2018-Feb-21 09:30N 38°21' W 009°44'4 7.5
2018-Feb-21 09:00N 38°17' W 009°43'8 7.5
2018-Feb-21 07:56N 38°09' W 009°41'19 7.5
2018-Feb-21 05:26N 37°51' W 009°36'3 6.9
2018-Feb-21 05:00N 37°48' W 009°35'3 6.9
2018-Feb-21 04:30N 37°45' W 009°35'3 6.9
2018-Feb-21 04:00N 37°41' W 009°34'3 7.0
2018-Feb-21 03:30N 37°38' W 009°32'4 7.0
2018-Feb-21 02:57N 37°34' W 009°31'3 6.8
2018-Feb-21 02:30N 37°31' W 009°30'3 6.8
2018-Feb-21 02:00N 37°28' W 009°29'22 6.7
2018-Feb-20 22:42N 37°07' W 009°23'2 6.4
2018-Feb-20 22:19N 37°04' W 009°22'26 5.9
2018-Feb-20 17:48N 36°43' W 009°02'9 6.2
2018-Feb-20 16:16N 36°40' W 008°51'163 8.0
2018-Feb-19 19:54N 35°58' W 005°36'4 6.2
2018-Feb-19 19:13N 35°59' W 005°31'2 7.5
2018-Feb-19 19:00N 35°59' W 005°29'4 7.3
2018-Feb-19 18:30N 36°00' W 005°25'4 7.0
2018-Feb-19 18:00N 36°01' W 005°20'  

Dump ship's entire track history